createdAt,value
2022-12-06T00:00:42.486Z,1.6
2022-12-06T00:01:52.622Z,1.6
2022-12-06T00:03:02.681Z,1.6
2022-12-06T00:04:12.854Z,1.6
2022-12-06T00:05:22.924Z,1.6
2022-12-06T00:06:33.085Z,1.6
2022-12-06T00:07:43.209Z,1.6
2022-12-06T00:08:52.297Z,1.6
2022-12-06T00:10:01.485Z,1.6
2022-12-06T00:11:11.609Z,1.6
2022-12-06T00:12:21.728Z,1.6
2022-12-06T00:13:31.829Z,1.6
2022-12-06T00:14:41.949Z,1.6
2022-12-06T00:15:51.098Z,1.7
2022-12-06T00:17:00.233Z,1.7
2022-12-06T00:18:10.351Z,1.7
2022-12-06T00:19:20.433Z,1.7
2022-12-06T00:20:30.540Z,1.7
2022-12-06T00:21:40.700Z,1.7
2022-12-06T00:22:50.830Z,1.8
2022-12-06T00:24:00.951Z,1.8
2022-12-06T00:25:11.059Z,1.8
2022-12-06T00:26:21.129Z,1.8
2022-12-06T00:27:31.255Z,1.8
2022-12-06T00:28:41.412Z,1.8
2022-12-06T00:29:51.486Z,1.8
2022-12-06T00:31:01.663Z,1.8
2022-12-06T00:32:10.780Z,1.8
2022-12-06T00:33:20.909Z,1.8
2022-12-06T00:34:30.989Z,1.9
2022-12-06T00:35:41.146Z,1.9
2022-12-06T00:36:51.208Z,1.8
2022-12-06T00:38:01.378Z,1.8
2022-12-06T00:39:11.499Z,1.8
2022-12-06T00:40:21.626Z,1.8
2022-12-06T00:41:30.763Z,1.8
2022-12-06T00:42:40.823Z,1.8
2022-12-06T00:43:50.987Z,1.8
2022-12-06T00:45:01.112Z,1.9
2022-12-06T00:46:11.234Z,1.8
2022-12-06T00:47:21.343Z,1.8
2022-12-06T00:48:31.462Z,1.8
2022-12-06T00:49:41.543Z,1.8
2022-12-06T00:50:51.656Z,1.9
2022-12-06T00:52:01.821Z,1.9
2022-12-06T00:53:11.943Z,1.9
2022-12-06T00:54:22.011Z,1.9
2022-12-06T00:55:32.123Z,1.9
2022-12-06T00:56:42.415Z,1.9
2022-12-06T00:57:52.494Z,1.9
2022-12-06T00:59:02.652Z,1.9
2022-12-06T01:00:12.775Z,1.9
2022-12-06T01:01:22.889Z,1.9
2022-12-06T01:02:32.963Z,1.9
2022-12-06T01:03:43.069Z,1.9
2022-12-06T01:04:53.235Z,1.9
2022-12-06T01:06:03.309Z,1.9
2022-12-06T01:07:13.483Z,1.9
2022-12-06T01:08:23.592Z,1.9
2022-12-06T01:09:33.668Z,1.9
2022-12-06T01:10:43.842Z,1.9
2022-12-06T01:11:52.926Z,1.9
2022-12-06T01:13:03.082Z,1.9
2022-12-06T01:15:23.326Z,2
2022-12-06T01:16:33.446Z,2
2022-12-06T01:17:43.550Z,2
2022-12-06T01:18:53.672Z,2
2022-12-06T01:20:03.800Z,2
2022-12-06T01:21:13.922Z,2
2022-12-06T01:22:24.024Z,2
2022-12-06T01:23:34.155Z,2
2022-12-06T01:24:44.265Z,2
2022-12-06T01:25:54.385Z,2
2022-12-06T01:27:03.524Z,2
2022-12-06T01:28:13.000Z,2
2022-12-06T01:29:23.749Z,2
2022-12-06T01:30:32.892Z,2
2022-12-06T01:31:42.042Z,2
2022-12-06T01:32:52.156Z,2
2022-12-06T01:34:01.295Z,2
2022-12-06T01:35:10.431Z,2
2022-12-06T01:36:20.500Z,2
2022-12-06T01:37:30.678Z,2.1
2022-12-06T01:38:40.782Z,2
2022-12-06T01:39:50.861Z,2
2022-12-06T01:41:01.020Z,2
2022-12-06T01:42:11.145Z,2
2022-12-06T01:43:21.271Z,2
2022-12-06T01:44:31.388Z,2
2022-12-06T01:45:41.498Z,2
2022-12-06T01:46:51.622Z,2
2022-12-06T01:48:01.745Z,2
2022-12-06T01:49:11.864Z,2.1
2022-12-06T01:50:20.943Z,2.1
2022-12-06T01:51:31.113Z,2
2022-12-06T01:52:41.222Z,2
2022-12-06T01:53:51.351Z,2
2022-12-06T01:55:01.468Z,2
2022-12-06T01:56:11.577Z,2
2022-12-06T01:57:21.705Z,2
2022-12-06T01:58:31.816Z,2.1
2022-12-06T01:59:41.936Z,2.1
2022-12-06T02:00:52.000Z,2.1
2022-12-06T02:02:01.145Z,2.1
2022-12-06T02:03:10.332Z,2.1
2022-12-06T02:04:20.448Z,2.1
2022-12-06T02:05:30.710Z,2.1
2022-12-06T02:06:39.845Z,2.1
2022-12-06T02:07:49.920Z,2.1
2022-12-06T02:09:00.079Z,2.2
2022-12-06T02:10:10.200Z,2.1
2022-12-06T02:11:20.322Z,2.1
2022-12-06T02:12:30.437Z,2.1
2022-12-06T02:13:40.555Z,2.1
2022-12-06T02:14:50.000Z,2.1
2022-12-06T02:16:00.788Z,2.1
2022-12-06T02:17:10.923Z,2.1
2022-12-06T02:18:21.026Z,2.1
2022-12-06T02:19:31.149Z,2.1
2022-12-06T02:20:41.273Z,2.1
2022-12-06T02:21:50.412Z,2.1
2022-12-06T02:23:00.522Z,2.1
2022-12-06T02:24:10.644Z,2.2
2022-12-06T02:25:20.750Z,2.1
2022-12-06T02:26:30.882Z,2.1
2022-12-06T02:27:40.946Z,2.1
2022-12-06T02:28:51.075Z,2.1
2022-12-06T02:30:01.240Z,2.1
2022-12-06T02:31:11.343Z,2.1
2022-12-06T02:32:21.468Z,2.1
2022-12-06T02:33:31.542Z,2.1
2022-12-06T02:34:41.650Z,2.1
2022-12-06T02:35:51.773Z,2.1
2022-12-06T02:37:00.956Z,2.1
2022-12-06T02:38:11.020Z,2.1
2022-12-06T02:39:21.186Z,2.1
2022-12-06T02:40:31.307Z,2.1
2022-12-06T02:41:41.428Z,2.1
2022-12-06T02:42:51.503Z,2.1
2022-12-06T02:44:01.670Z,2.1
2022-12-06T02:45:11.788Z,2.1
2022-12-06T02:46:21.901Z,2.1
2022-12-06T02:47:31.965Z,2.1
2022-12-06T02:48:42.090Z,2.1
2022-12-06T02:49:52.258Z,2.1
2022-12-06T02:51:02.319Z,2.2
2022-12-06T02:52:11.502Z,2.2
2022-12-06T02:53:21.624Z,2.2
2022-12-06T02:54:31.749Z,2.2
2022-12-06T02:55:41.876Z,2.2
2022-12-06T02:56:51.980Z,2.2
2022-12-06T02:58:02.097Z,2.2
2022-12-06T02:59:12.224Z,2.2
2022-12-06T03:00:22.344Z,2.2
2022-12-06T03:01:32.453Z,2.2
2022-12-06T03:02:42.566Z,2.2
2022-12-06T03:03:52.684Z,2.2
2022-12-06T03:05:02.804Z,2.2
2022-12-06T03:06:12.922Z,2.2
2022-12-06T03:07:22.067Z,2.2
2022-12-06T03:08:32.133Z,2.2
2022-12-06T03:09:42.293Z,2.2
2022-12-06T03:10:52.364Z,2.2
2022-12-06T03:12:02.486Z,2.2
2022-12-06T03:13:12.608Z,2.3
2022-12-06T03:14:22.764Z,2.3
2022-12-06T03:15:32.849Z,2.3
2022-12-06T03:16:43.017Z,2.3
2022-12-06T03:17:53.128Z,2.3
2022-12-06T03:19:03.256Z,2.3
2022-12-06T03:20:13.368Z,2.3
2022-12-06T03:21:23.473Z,2.3
2022-12-06T03:22:32.608Z,2.3
2022-12-06T03:23:42.730Z,2.3
2022-12-06T03:24:52.801Z,2.3
2022-12-06T03:26:02.964Z,2.3
2022-12-06T03:27:13.094Z,2.3
2022-12-06T03:28:23.215Z,2.3
2022-12-06T03:29:33.281Z,2.3
2022-12-06T03:30:43.438Z,2.3
2022-12-06T03:31:53.564Z,2.3
2022-12-06T03:33:03.672Z,2.4
2022-12-06T03:34:13.795Z,2.4
2022-12-06T03:35:23.907Z,2.3
2022-12-06T03:36:33.060Z,2.4
2022-12-06T03:37:43.249Z,2.4
2022-12-06T03:38:52.444Z,2.4
2022-12-06T03:40:01.581Z,2.5
2022-12-06T03:41:11.707Z,2.5
2022-12-06T03:42:21.813Z,2.5
2022-12-06T03:43:31.887Z,2.5
2022-12-06T03:44:42.050Z,2.5
2022-12-06T03:45:52.000Z,2.5
2022-12-06T03:47:02.247Z,2.4
2022-12-06T03:48:12.405Z,2.4
2022-12-06T03:49:22.475Z,2.4
2022-12-06T03:50:32.637Z,2.4
2022-12-06T03:51:42.759Z,2.4
2022-12-06T03:52:52.830Z,2.4
2022-12-06T03:54:02.995Z,2.5
2022-12-06T03:55:12.131Z,2.4
2022-12-06T03:56:22.205Z,2.5
2022-12-06T03:57:32.311Z,2.4
2022-12-06T03:58:42.484Z,2.4
2022-12-06T03:59:52.608Z,2.4
2022-12-06T04:01:02.674Z,2.4
2022-12-06T04:02:12.841Z,2.5
2022-12-06T04:03:22.950Z,2.4
2022-12-06T04:04:33.072Z,2.4
2022-12-06T04:05:43.194Z,2.5
2022-12-06T04:06:53.310Z,2.5
2022-12-06T04:08:03.430Z,2.5
2022-12-06T04:09:13.545Z,2.5
2022-12-06T04:10:22.679Z,2.5
2022-12-06T04:11:32.752Z,2.5
2022-12-06T04:12:42.871Z,2.5
2022-12-06T04:13:52.989Z,2.5
2022-12-06T04:15:03.152Z,2.4
2022-12-06T04:16:13.274Z,2.4
2022-12-06T04:17:23.386Z,2.4
2022-12-06T04:18:33.511Z,2.5
2022-12-06T04:19:43.581Z,2.5
2022-12-06T04:20:53.746Z,2.5
2022-12-06T04:22:03.809Z,2.5
2022-12-06T04:23:13.994Z,2.4
2022-12-06T04:24:24.098Z,2.4
2022-12-06T04:25:33.195Z,2.5
2022-12-06T04:26:43.350Z,2.4
2022-12-06T04:27:53.471Z,2.4
2022-12-06T04:29:03.594Z,2.4
2022-12-06T04:30:13.716Z,2.4
2022-12-06T04:31:23.820Z,2.4
2022-12-06T04:32:33.893Z,2.4
2022-12-06T04:33:44.058Z,2.4
2022-12-06T04:34:54.183Z,2.5
2022-12-06T04:36:03.321Z,2.5
2022-12-06T04:38:23.558Z,2.5
2022-12-06T04:39:33.680Z,2.5
2022-12-06T04:40:43.789Z,2.5
2022-12-06T04:41:53.860Z,2.5
2022-12-06T04:43:04.040Z,2.6
2022-12-06T04:45:24.207Z,2.6
2022-12-06T04:46:34.388Z,2.6
2022-12-06T04:47:44.496Z,2.7
2022-12-06T04:48:54.620Z,2.7
2022-12-06T04:50:04.745Z,2.7
2022-12-06T04:51:13.876Z,2.7
2022-12-06T04:52:23.996Z,2.7
2022-12-06T04:53:34.054Z,2.7
2022-12-06T04:54:44.171Z,2.7
2022-12-06T04:55:54.289Z,2.7
2022-12-06T04:57:04.415Z,2.7
2022-12-06T04:58:14.589Z,2.7
2022-12-06T04:59:24.647Z,2.7
2022-12-06T05:00:33.843Z,2.6
2022-12-06T05:01:42.980Z,2.6
2022-12-06T05:02:53.096Z,2.7
2022-12-06T05:04:03.218Z,2.6
2022-12-06T05:05:12.353Z,2.7
2022-12-06T05:06:21.489Z,2.7
2022-12-06T05:07:31.557Z,2.7
2022-12-06T05:08:41.688Z,2.8
2022-12-06T05:09:51.793Z,2.7
2022-12-06T05:11:01.962Z,2.8
2022-12-06T05:12:12.096Z,2.8
2022-12-06T05:13:22.198Z,2.8
2022-12-06T05:14:32.317Z,2.8
2022-12-06T05:15:42.440Z,2.8
2022-12-06T05:16:52.566Z,2.8
2022-12-06T05:18:02.684Z,2.8
2022-12-06T05:19:12.798Z,2.9
2022-12-06T05:20:22.857Z,2.8
2022-12-06T05:21:31.989Z,2.8
2022-12-06T05:22:42.116Z,2.8
2022-12-06T05:23:52.282Z,2.8
2022-12-06T05:25:02.410Z,2.8
2022-12-06T05:26:12.524Z,2.9
2022-12-06T05:27:22.632Z,2.9
2022-12-06T05:28:32.757Z,2.9
2022-12-06T05:29:42.885Z,2.8
2022-12-06T05:30:52.941Z,2.9
2022-12-06T05:32:03.059Z,2.9
2022-12-06T05:33:13.239Z,2.9
2022-12-06T05:34:23.303Z,2.9
2022-12-06T05:35:33.463Z,2.9
2022-12-06T05:36:42.610Z,2.9
2022-12-06T05:37:52.722Z,2.9
2022-12-06T05:39:02.829Z,2.9
2022-12-06T05:40:12.946Z,3
2022-12-06T05:41:23.067Z,3
2022-12-06T05:42:33.188Z,3
2022-12-06T05:43:43.260Z,3
2022-12-06T05:44:53.380Z,3
2022-12-06T05:47:13.655Z,3
2022-12-06T05:48:23.787Z,3
2022-12-06T05:49:33.892Z,3
2022-12-06T05:50:44.012Z,3
2022-12-06T05:51:53.108Z,2.9
2022-12-06T05:53:03.212Z,2.9
2022-12-06T05:54:13.384Z,2.9
2022-12-06T05:55:23.506Z,3
2022-12-06T05:56:33.628Z,3
2022-12-06T05:57:43.754Z,3
2022-12-06T05:58:53.807Z,3
2022-12-06T06:00:03.983Z,3
2022-12-06T06:01:14.107Z,3.1
2022-12-06T06:02:24.222Z,3.1
2022-12-06T06:03:34.278Z,3.1
2022-12-06T06:04:44.406Z,3.1
2022-12-06T06:05:54.568Z,3.2
2022-12-06T06:07:03.648Z,3.2
2022-12-06T06:08:13.824Z,3.2
2022-12-06T06:09:23.941Z,3.2
2022-12-06T06:10:34.005Z,3.3
2022-12-06T06:11:44.171Z,3.3
2022-12-06T06:12:54.297Z,3.4
2022-12-06T06:14:04.360Z,3.4
2022-12-06T06:15:14.543Z,3.4
2022-12-06T06:16:24.595Z,3.4
2022-12-06T06:17:34.711Z,3.4
2022-12-06T06:18:44.837Z,3.4
2022-12-06T06:19:54.953Z,3.5
2022-12-06T06:21:05.119Z,3.5
2022-12-06T06:22:14.261Z,3.5
2022-12-06T06:23:24.382Z,3.6
2022-12-06T06:24:34.438Z,3.6
2022-12-06T06:25:44.561Z,3.7
2022-12-06T06:26:54.688Z,3.7
2022-12-06T06:28:04.791Z,3.7
2022-12-06T06:30:25.040Z,3.9
2022-12-06T06:31:35.201Z,3.9
2022-12-06T06:32:45.332Z,3.9
2022-12-06T06:33:55.384Z,3.9
2022-12-06T06:35:05.570Z,3.9
2022-12-06T06:36:15.680Z,4
2022-12-06T06:37:24.752Z,4
2022-12-06T06:38:34.937Z,4.1
2022-12-06T06:39:44.990Z,4.1
2022-12-06T06:40:55.112Z,4.1
2022-12-06T06:42:05.233Z,4.1
2022-12-06T06:43:15.396Z,4.2
2022-12-06T06:44:25.521Z,4.2
2022-12-06T06:45:35.646Z,4.3
2022-12-06T06:46:45.751Z,4.3
2022-12-06T06:49:05.937Z,4.3
2022-12-06T06:50:16.110Z,4.3
2022-12-06T06:51:26.185Z,4.4
2022-12-06T06:52:35.304Z,4.4
2022-12-06T06:53:45.428Z,4.4
2022-12-06T06:54:55.545Z,4.4
2022-12-06T06:56:05.728Z,4.4
2022-12-06T06:57:15.782Z,4.4
2022-12-06T06:58:25.962Z,4.5
2022-12-06T06:59:36.019Z,4.5
2022-12-06T07:00:46.141Z,4.5
2022-12-06T07:01:56.313Z,4.5
2022-12-06T07:03:06.383Z,4.5
2022-12-06T07:04:16.542Z,4.5
2022-12-06T07:05:26.667Z,4.5
2022-12-06T07:06:36.734Z,4.5
2022-12-06T07:07:45.921Z,4.5
2022-12-06T07:08:55.991Z,4.5
2022-12-06T07:10:06.150Z,4.5
2022-12-06T07:11:16.276Z,4.5
2022-12-06T07:12:26.381Z,4.5
2022-12-06T07:13:36.446Z,4.6
2022-12-06T07:14:46.569Z,4.6
2022-12-06T07:15:56.691Z,4.5
2022-12-06T07:17:06.801Z,4.6
2022-12-06T07:18:16.919Z,4.6
2022-12-06T07:19:27.045Z,4.6
2022-12-06T07:20:37.209Z,4.6
2022-12-06T07:21:47.334Z,4.6
2022-12-06T07:22:56.421Z,4.6
2022-12-06T07:24:06.531Z,4.6
2022-12-06T07:25:16.709Z,4.6
2022-12-06T07:26:26.814Z,4.6
2022-12-06T07:27:36.933Z,4.6
2022-12-06T07:28:47.064Z,4.6
2022-12-06T07:29:57.123Z,4.6
2022-12-06T07:31:07.290Z,4.6
2022-12-06T07:32:17.367Z,4.6
2022-12-06T07:33:27.523Z,4.6
2022-12-06T07:34:37.595Z,4.7
2022-12-06T07:35:47.719Z,4.7
2022-12-06T07:36:57.843Z,4.6
2022-12-06T07:38:06.961Z,4.6
2022-12-06T07:39:17.083Z,4.7
2022-12-06T07:40:27.206Z,4.7
2022-12-06T07:41:37.324Z,4.6
2022-12-06T07:42:47.446Z,4.7
2022-12-06T07:43:57.559Z,4.6
2022-12-06T07:45:07.735Z,4.7
2022-12-06T07:46:17.842Z,4.7
2022-12-06T07:47:27.974Z,4.6
2022-12-06T07:48:38.075Z,4.6
2022-12-06T07:49:48.195Z,4.6
2022-12-06T07:50:58.260Z,4.7
2022-12-06T07:52:08.433Z,4.7
2022-12-06T07:53:17.569Z,4.7
2022-12-06T07:54:27.687Z,4.7
2022-12-06T07:55:37.750Z,4.6
2022-12-06T07:56:47.928Z,4.6
2022-12-06T07:57:58.037Z,4.7
2022-12-06T07:59:08.109Z,4.7
2022-12-06T08:00:18.273Z,4.7
2022-12-06T08:01:28.403Z,4.7
2022-12-06T08:02:38.518Z,4.6
2022-12-06T08:03:48.626Z,4.6
2022-12-06T08:04:58.744Z,4.6
2022-12-06T08:06:08.869Z,4.6
2022-12-06T08:07:18.927Z,4.7
2022-12-06T08:08:29.223Z,4.6
2022-12-06T08:09:39.290Z,4.7
2022-12-06T08:10:49.466Z,4.7
2022-12-06T08:11:59.575Z,4.7
2022-12-06T08:13:09.696Z,4.7
2022-12-06T08:14:19.814Z,4.7
2022-12-06T08:15:29.881Z,4.7
2022-12-06T08:16:40.062Z,4.6
2022-12-06T08:17:50.163Z,4.7
2022-12-06T08:19:00.284Z,4.7
2022-12-06T08:20:10.413Z,4.7
2022-12-06T08:21:20.533Z,4.7
2022-12-06T08:22:30.637Z,4.7
2022-12-06T08:23:40.882Z,4.7
2022-12-06T08:24:51.007Z,4.7
2022-12-06T08:26:01.112Z,4.7
2022-12-06T08:27:11.241Z,4.7
2022-12-06T08:28:21.363Z,4.7
2022-12-06T08:29:31.465Z,4.7
2022-12-06T08:30:40.620Z,4.7
2022-12-06T08:31:50.727Z,4.7
2022-12-06T08:33:00.858Z,4.7
2022-12-06T08:34:09.990Z,4.8
2022-12-06T08:35:19.120Z,4.8
2022-12-06T08:36:29.244Z,4.8
2022-12-06T08:37:38.397Z,4.8
2022-12-06T08:38:48.640Z,4.7
2022-12-06T08:39:58.748Z,4.8
2022-12-06T08:41:08.857Z,4.7
2022-12-06T08:42:18.985Z,4.7
2022-12-06T08:43:29.107Z,4.8
2022-12-06T08:44:39.218Z,4.7
2022-12-06T08:45:49.277Z,4.8
2022-12-06T08:46:59.448Z,4.8
2022-12-06T08:48:09.516Z,4.8
2022-12-06T08:49:19.693Z,4.7
2022-12-06T08:50:29.753Z,4.7
2022-12-06T08:51:39.930Z,4.7
2022-12-06T08:52:49.990Z,4.7
2022-12-06T08:53:59.173Z,4.8
2022-12-06T08:55:09.302Z,4.8
2022-12-06T08:56:19.364Z,4.8
2022-12-06T08:57:29.491Z,4.8
2022-12-06T08:58:39.646Z,4.8
2022-12-06T08:59:49.713Z,4.8
2022-12-06T09:00:59.831Z,4.7
2022-12-06T09:02:09.957Z,4.8
2022-12-06T09:03:20.121Z,4.8
2022-12-06T09:04:30.244Z,4.8
2022-12-06T09:05:40.301Z,4.8
2022-12-06T09:06:50.486Z,4.8
2022-12-06T09:08:00.592Z,4.8
2022-12-06T09:09:09.673Z,4.8
2022-12-06T09:10:19.845Z,4.9
2022-12-06T09:11:29.912Z,4.9
2022-12-06T09:12:40.080Z,4.9
2022-12-06T09:13:50.147Z,4.9
2022-12-06T09:14:59.286Z,4.8
2022-12-06T09:16:08.487Z,4.8
2022-12-06T09:17:17.633Z,4.8
2022-12-06T09:18:26.753Z,4.8
2022-12-06T09:19:36.816Z,4.8
2022-12-06T09:20:46.947Z,4.8
2022-12-06T09:21:57.107Z,4.9
2022-12-06T09:23:07.171Z,4.8
2022-12-06T09:24:17.298Z,4.9
2022-12-06T09:25:27.468Z,4.8
2022-12-06T09:26:37.536Z,4.8
2022-12-06T09:27:47.700Z,4.8
2022-12-06T09:28:57.762Z,4.9
2022-12-06T09:30:07.952Z,4.9
2022-12-06T09:31:18.061Z,4.8
2022-12-06T09:32:28.115Z,4.8
2022-12-06T09:33:37.303Z,4.8
2022-12-06T09:34:47.374Z,4.8
2022-12-06T09:35:57.495Z,4.8
2022-12-06T09:37:07.660Z,4.8
2022-12-06T09:39:27.840Z,4.9
2022-12-06T09:40:37.962Z,4.8
2022-12-06T09:41:48.129Z,4.9
2022-12-06T09:42:58.249Z,4.9
2022-12-06T09:44:08.377Z,4.8
2022-12-06T09:45:18.431Z,4.8
2022-12-06T09:46:28.548Z,4.8
2022-12-06T09:47:38.728Z,4.8
2022-12-06T09:48:48.908Z,4.8
2022-12-06T09:49:59.029Z,4.8
2022-12-06T09:51:09.198Z,4.8
2022-12-06T09:52:19.261Z,4.8
2022-12-06T09:53:29.441Z,4.9
2022-12-06T09:54:39.502Z,4.9
2022-12-06T09:55:49.611Z,4.8
2022-12-06T09:56:59.736Z,4.9
2022-12-06T09:58:09.904Z,4.9
2022-12-06T09:59:20.022Z,4.9
2022-12-06T10:00:30.088Z,4.9
2022-12-06T10:01:40.208Z,4.9
2022-12-06T10:02:50.324Z,5
2022-12-06T10:03:59.456Z,4.9
2022-12-06T10:05:08.662Z,5
2022-12-06T10:06:17.800Z,5
2022-12-06T10:07:27.850Z,5
2022-12-06T10:08:37.973Z,5
2022-12-06T10:09:48.145Z,5
2022-12-06T10:10:58.356Z,5
2022-12-06T10:12:07.491Z,5.1
2022-12-06T10:13:17.677Z,5.1
2022-12-06T10:14:27.777Z,5.1
2022-12-06T10:15:37.907Z,5.1
2022-12-06T10:16:48.030Z,5.1
2022-12-06T10:17:58.148Z,5.1
2022-12-06T10:19:08.249Z,5.1
2022-12-06T10:20:18.366Z,5.1
2022-12-06T10:21:28.495Z,5.1
2022-12-06T10:22:38.554Z,5.1
2022-12-06T10:23:48.727Z,5
2022-12-06T10:24:58.784Z,5
2022-12-06T10:26:08.964Z,5
2022-12-06T10:27:18.096Z,5
2022-12-06T10:28:28.225Z,5.1
2022-12-06T10:29:38.336Z,5
2022-12-06T10:30:48.404Z,5
2022-12-06T10:31:58.565Z,5.1
2022-12-06T10:33:08.630Z,5.1
2022-12-06T10:34:18.758Z,5
2022-12-06T10:35:28.864Z,5.1
2022-12-06T10:36:38.987Z,5.1
2022-12-06T10:37:49.152Z,5.1
2022-12-06T10:38:59.224Z,5.1
2022-12-06T10:40:09.337Z,5
2022-12-06T10:41:19.512Z,5
2022-12-06T10:42:28.000Z,5
2022-12-06T10:43:38.715Z,5
2022-12-06T10:44:48.837Z,5
2022-12-06T10:45:59.005Z,5.1
2022-12-06T10:47:09.061Z,5.1
2022-12-06T10:48:19.231Z,5.1
2022-12-06T10:49:29.300Z,5
2022-12-06T10:50:39.420Z,5.1
2022-12-06T10:51:49.596Z,5.1
2022-12-06T10:52:59.720Z,5.1
2022-12-06T10:54:08.851Z,5.1
2022-12-06T10:55:17.994Z,5.1
2022-12-06T10:56:28.046Z,5.1
2022-12-06T10:57:38.230Z,5.1
2022-12-06T10:58:48.337Z,5.1
2022-12-06T10:59:58.545Z,5.1
2022-12-06T11:01:07.737Z,5.1
2022-12-06T11:03:27.981Z,5
2022-12-06T11:04:38.105Z,5
2022-12-06T11:05:48.153Z,5.1
2022-12-06T11:06:58.530Z,5.1
2022-12-06T11:08:08.640Z,5.1
2022-12-06T11:09:18.565Z,5.1
2022-12-06T11:10:28.689Z,5.1
2022-12-06T11:11:38.815Z,5.1
2022-12-06T11:12:48.921Z,5
2022-12-06T11:13:58.991Z,5
2022-12-06T11:15:09.170Z,4.9
2022-12-06T11:17:28.359Z,5
2022-12-06T11:18:38.625Z,5
2022-12-06T11:19:47.758Z,5
2022-12-06T11:20:57.863Z,5
2022-12-06T11:22:08.051Z,5
2022-12-06T11:23:18.108Z,5.1
2022-12-06T11:24:28.231Z,5.1
2022-12-06T11:25:38.392Z,5.1
2022-12-06T11:26:48.517Z,5.1
2022-12-06T11:27:58.630Z,5.1
2022-12-06T11:29:08.752Z,5.2
2022-12-06T11:30:18.877Z,5.2
2022-12-06T11:31:28.010Z,5.2
2022-12-06T11:32:37.092Z,5.1
2022-12-06T11:33:47.259Z,5.2
2022-12-06T11:34:57.382Z,5.2
2022-12-06T11:36:07.509Z,5.2
2022-12-06T11:37:17.619Z,5.3
2022-12-06T11:38:27.749Z,5.4
2022-12-06T11:39:37.861Z,5.4
2022-12-06T11:40:47.919Z,5.3
2022-12-06T11:41:58.086Z,5.3
2022-12-06T11:43:08.154Z,5.2
2022-12-06T11:44:18.331Z,5.2
2022-12-06T11:45:28.389Z,5.3
2022-12-06T11:46:38.557Z,5.2
2022-12-06T11:47:47.642Z,5.2
2022-12-06T11:48:57.768Z,5.2
2022-12-06T11:50:07.930Z,5.3
2022-12-06T11:51:18.060Z,5.3
2022-12-06T11:52:28.360Z,5.2
2022-12-06T11:53:38.234Z,5.2
2022-12-06T11:54:48.600Z,5.2
2022-12-06T11:55:58.714Z,5.2
2022-12-06T11:57:08.582Z,5.1
2022-12-06T11:58:18.756Z,5.1
2022-12-06T11:59:28.880Z,5.1
2022-12-06T12:00:39.007Z,5.1
2022-12-06T12:01:49.112Z,5
2022-12-06T12:02:58.189Z,5.1
2022-12-06T12:04:08.556Z,5
2022-12-06T12:05:18.491Z,5
2022-12-06T12:06:28.788Z,5
2022-12-06T12:07:38.660Z,5
2022-12-06T12:08:48.833Z,5.1
2022-12-06T12:09:58.896Z,5.1
2022-12-06T12:11:09.271Z,5.1
2022-12-06T12:12:19.194Z,5.1
2022-12-06T12:13:29.497Z,5.1
2022-12-06T12:14:39.379Z,5
2022-12-06T12:15:49.540Z,5
2022-12-06T12:16:59.850Z,5
2022-12-06T12:18:08.794Z,5
2022-12-06T12:19:18.853Z,4.9
2022-12-06T12:20:29.033Z,5
2022-12-06T12:21:39.098Z,5
2022-12-06T12:22:49.280Z,5
2022-12-06T12:23:59.387Z,5.1
2022-12-06T12:25:08.522Z,5.1
2022-12-06T12:26:18.648Z,5.1
2022-12-06T12:27:28.756Z,5
2022-12-06T12:28:38.823Z,5
2022-12-06T12:29:48.953Z,5
2022-12-06T12:30:59.110Z,5
2022-12-06T12:32:09.246Z,5
2022-12-06T12:33:19.344Z,4.9
2022-12-06T12:34:29.660Z,4.9
2022-12-06T12:35:39.530Z,4.9
2022-12-06T12:36:49.902Z,4.9
2022-12-06T12:37:59.823Z,4.9
2022-12-06T12:39:10.128Z,5
2022-12-06T12:40:19.026Z,5.1
2022-12-06T12:41:29.133Z,5
2022-12-06T12:42:39.260Z,5
2022-12-06T12:43:49.367Z,5
2022-12-06T12:44:59.490Z,5
2022-12-06T12:46:09.665Z,4.9
2022-12-06T12:48:30.090Z,4.9
2022-12-06T12:49:39.957Z,4.9
2022-12-06T12:50:50.132Z,5
2022-12-06T12:52:00.197Z,5
2022-12-06T12:53:10.316Z,5
2022-12-06T12:54:20.437Z,5
2022-12-06T12:55:29.574Z,4.9
2022-12-06T12:56:39.679Z,4.9
2022-12-06T12:57:50.053Z,5
2022-12-06T12:59:00.172Z,4.9
2022-12-06T13:00:10.048Z,4.9
2022-12-06T13:01:20.154Z,4.8
2022-12-06T13:02:30.267Z,4.8
2022-12-06T13:03:40.386Z,4.8
2022-12-06T13:04:50.506Z,4.8
2022-12-06T13:06:00.875Z,4.8
2022-12-06T13:07:10.745Z,4.8
2022-12-06T13:08:20.859Z,4.7
2022-12-06T13:09:30.987Z,4.7
2022-12-06T13:10:40.124Z,4.7
2022-12-06T13:11:50.246Z,4.7
2022-12-06T13:13:00.353Z,4.7
2022-12-06T13:14:10.467Z,4.7
2022-12-06T13:15:20.590Z,4.7
2022-12-06T13:16:30.965Z,4.8
2022-12-06T13:17:40.821Z,4.8
2022-12-06T13:18:50.938Z,4.8
2022-12-06T13:20:01.456Z,4.8
2022-12-06T13:21:10.353Z,4.7
2022-12-06T13:22:19.485Z,4.8
2022-12-06T13:23:28.623Z,4.7
2022-12-06T13:24:38.749Z,4.8
2022-12-06T13:25:48.850Z,4.7
2022-12-06T13:26:58.970Z,4.7
2022-12-06T13:28:09.338Z,4.7
2022-12-06T13:29:19.207Z,4.7
2022-12-06T13:30:29.331Z,4.7
2022-12-06T13:31:39.457Z,4.7
2022-12-06T13:32:49.810Z,4.7
2022-12-06T13:33:59.690Z,4.7
2022-12-06T13:35:09.796Z,4.7
2022-12-06T13:36:19.920Z,4.7
2022-12-06T13:37:30.049Z,4.7
2022-12-06T13:38:39.170Z,4.7
2022-12-06T13:39:49.285Z,4.7
2022-12-06T13:40:59.659Z,4.6
2022-12-06T13:42:09.524Z,4.7
2022-12-06T13:43:19.647Z,4.7
2022-12-06T13:44:29.761Z,4.6
2022-12-06T13:45:39.886Z,4.6
2022-12-06T13:46:49.024Z,4.6
2022-12-06T13:47:58.156Z,4.7
2022-12-06T13:49:07.310Z,4.6
2022-12-06T13:50:16.442Z,4.6
2022-12-06T13:51:26.547Z,4.7
2022-12-06T13:52:36.672Z,4.7
2022-12-06T13:53:46.795Z,4.7
2022-12-06T13:54:56.907Z,4.7
2022-12-06T13:56:07.031Z,4.7
2022-12-06T13:57:17.154Z,4.7
2022-12-06T13:58:27.273Z,4.8
2022-12-06T13:59:37.385Z,4.8
2022-12-06T14:00:47.492Z,4.8
2022-12-06T14:01:57.614Z,4.8
2022-12-06T14:03:07.984Z,4.9
2022-12-06T14:04:17.859Z,4.9
2022-12-06T14:05:26.993Z,4.9
2022-12-06T14:06:37.100Z,4.9
2022-12-06T14:07:47.223Z,4.9
2022-12-06T14:08:57.336Z,4.9
2022-12-06T14:10:07.465Z,4.9
2022-12-06T14:11:17.576Z,4.9
2022-12-06T14:12:27.688Z,4.9
2022-12-06T14:13:37.810Z,4.9
2022-12-06T14:14:47.927Z,4.8
2022-12-06T14:15:58.298Z,4.8
2022-12-06T14:17:08.159Z,4.8
2022-12-06T14:18:18.280Z,4.8
2022-12-06T14:19:28.396Z,4.8
2022-12-06T14:20:37.535Z,4.8
2022-12-06T14:21:47.901Z,4.8
2022-12-06T14:22:57.765Z,4.8
2022-12-06T14:24:07.887Z,4.8
2022-12-06T14:26:28.390Z,4.8
2022-12-06T14:27:38.237Z,4.7
2022-12-06T14:28:48.359Z,4.7
2022-12-06T14:29:58.478Z,4.7
2022-12-06T14:31:08.606Z,4.7
2022-12-06T14:32:18.716Z,4.8
2022-12-06T14:33:29.089Z,4.8
2022-12-06T14:34:38.963Z,4.7
2022-12-06T14:35:48.098Z,4.7
2022-12-06T14:36:58.198Z,4.7
2022-12-06T14:38:08.567Z,4.6
2022-12-06T14:39:18.440Z,4.6
2022-12-06T14:40:28.555Z,4.6
2022-12-06T14:41:38.670Z,4.7
2022-12-06T14:42:48.788Z,4.7
2022-12-06T14:43:59.159Z,4.6
2022-12-06T14:45:09.030Z,4.6
2022-12-06T14:46:19.158Z,4.6
2022-12-06T14:47:29.262Z,4.6
2022-12-06T14:48:39.388Z,4.6
2022-12-06T14:49:49.496Z,4.6
2022-12-06T14:50:58.630Z,4.6
2022-12-06T14:52:08.751Z,4.6
2022-12-06T14:53:18.876Z,4.6
2022-12-06T14:54:28.988Z,4.6
2022-12-06T14:55:39.105Z,4.6
2022-12-06T14:56:49.483Z,4.6
2022-12-06T14:57:59.341Z,4.6
2022-12-06T14:59:08.497Z,4.6
2022-12-06T15:00:17.636Z,4.6
2022-12-06T15:01:27.740Z,4.6
2022-12-06T15:02:36.885Z,4.6
2022-12-06T15:03:46.023Z,4.6
2022-12-06T15:04:56.133Z,4.6
2022-12-06T15:06:06.262Z,4.6
2022-12-06T15:07:16.388Z,4.5
2022-12-06T15:08:26.489Z,4.5
2022-12-06T15:09:36.610Z,4.6
2022-12-06T15:10:46.732Z,4.6
2022-12-06T15:11:56.846Z,4.5
2022-12-06T15:13:06.960Z,4.5
2022-12-06T15:14:17.090Z,4.5
2022-12-06T15:15:27.201Z,4.6
2022-12-06T15:16:37.316Z,4.6
2022-12-06T15:17:47.689Z,4.6
2022-12-06T15:18:56.565Z,4.6
2022-12-06T15:20:06.687Z,4.6
2022-12-06T15:21:16.811Z,4.6
2022-12-06T15:22:27.177Z,4.6
2022-12-06T15:23:37.052Z,4.5
2022-12-06T15:24:47.156Z,4.5
2022-12-06T15:25:57.273Z,4.5
2022-12-06T15:27:06.425Z,4.5
2022-12-06T15:28:15.553Z,4.6
2022-12-06T15:29:25.682Z,4.5
2022-12-06T15:30:34.817Z,4.5
2022-12-06T15:31:43.967Z,4.5
2022-12-06T15:32:54.082Z,4.5
2022-12-06T15:34:04.189Z,4.5
2022-12-06T15:35:14.306Z,4.5
2022-12-06T15:36:24.673Z,4.5
2022-12-06T15:37:34.540Z,4.5
2022-12-06T15:38:44.676Z,4.6
2022-12-06T15:39:55.042Z,4.6
2022-12-06T15:41:04.895Z,4.6
2022-12-06T15:42:15.018Z,4.5
2022-12-06T15:43:25.386Z,4.5
2022-12-06T15:44:35.246Z,4.5
2022-12-06T15:45:45.375Z,4.4
2022-12-06T15:46:54.752Z,4.5
2022-12-06T15:48:04.617Z,4.5
2022-12-06T15:49:14.737Z,4.5
2022-12-06T15:50:24.862Z,4.5
2022-12-06T15:51:34.972Z,4.5
2022-12-06T15:52:45.098Z,4.4
2022-12-06T15:53:55.209Z,4.4
2022-12-06T15:55:04.366Z,4.4
2022-12-06T15:56:13.494Z,4.4
2022-12-06T15:57:23.618Z,4.4
2022-12-06T15:58:32.757Z,4.4
2022-12-06T15:59:41.886Z,4.4
2022-12-06T16:00:52.253Z,4.4
2022-12-06T16:02:02.123Z,4.4
2022-12-06T16:03:12.237Z,4.3
2022-12-06T16:04:22.356Z,4.3
2022-12-06T16:05:32.476Z,4.3
2022-12-06T16:06:42.600Z,4.2
2022-12-06T16:07:52.965Z,4.1
2022-12-06T16:09:02.827Z,4.1
2022-12-06T16:10:12.946Z,4.1
2022-12-06T16:11:23.066Z,4.1
2022-12-06T16:12:33.186Z,4.1
2022-12-06T16:13:43.305Z,4.1
2022-12-06T16:14:52.442Z,4.1
2022-12-06T16:16:02.569Z,4
2022-12-06T16:17:12.677Z,4
2022-12-06T16:18:22.799Z,4
2022-12-06T16:19:31.936Z,4.1
2022-12-06T16:20:42.296Z,4.1
2022-12-06T16:21:52.414Z,4.1
2022-12-06T16:23:01.560Z,4.1
2022-12-06T16:24:10.454Z,4.1
2022-12-06T16:25:20.565Z,4.1